sensor_id;sensor_type;location;lat;lon;timestamp;temperature;humidity
5846;DHT22;2949;50.778;7.094;2023-12-20T00:00:16;7.00;99.90
5846;DHT22;2949;50.778;7.094;2023-12-20T00:02:42;7.00;99.90
5846;DHT22;2949;50.778;7.094;2023-12-20T00:05:12;6.90;99.90
5846;DHT22;2949;50.778;7.094;2023-12-20T00:07:38;6.90;99.90
5846;DHT22;2949;50.778;7.094;2023-12-20T00:10:04;6.90;99.90
5846;DHT22;2949;50.778;7.094;2023-12-20T00:12:30;6.90;99.90
5846;DHT22;2949;50.778;7.094;2023-12-20T00:14:55;6.90;99.90
5846;DHT22;2949;50.778;7.094;2023-12-20T00:17:21;7.00;99.90
5846;DHT22;2949;50.778;7.094;2023-12-20T00:19:46;7.00;99.90
5846;DHT22;2949;50.778;7.094;2023-12-20T00:22:12;7.00;99.90
5846;DHT22;2949;50.778;7.094;2023-12-20T00:24:37;7.10;99.90
5846;DHT22;2949;50.778;7.094;2023-12-20T00:27:03;7.00;99.90
5846;DHT22;2949;50.778;7.094;2023-12-20T00:29:28;7.00;99.90
5846;DHT22;2949;50.778;7.094;2023-12-20T00:31:54;7.00;99.90
5846;DHT22;2949;50.778;7.094;2023-12-20T00:34:19;7.00;99.90
5846;DHT22;2949;50.778;7.094;2023-12-20T00:36:45;7.00;99.90
5846;DHT22;2949;50.778;7.094;2023-12-20T00:39:10;7.00;99.90
5846;DHT22;2949;50.778;7.094;2023-12-20T00:41:36;7.00;99.90
5846;DHT22;2949;50.778;7.094;2023-12-20T00:44:01;7.00;99.90
5846;DHT22;2949;50.778;7.094;2023-12-20T00:46:27;7.00;99.90
5846;DHT22;2949;50.778;7.094;2023-12-20T00:48:52;7.10;99.90
5846;DHT22;2949;50.778;7.094;2023-12-20T00:51:18;7.10;99.90
5846;DHT22;2949;50.778;7.094;2023-12-20T00:53:43;7.10;99.90
5846;DHT22;2949;50.778;7.094;2023-12-20T00:56:09;7.20;99.90
5846;DHT22;2949;50.778;7.094;2023-12-20T00:58:34;7.10;99.90
5846;DHT22;2949;50.778;7.094;2023-12-20T01:01:00;7.20;99.90
5846;DHT22;2949;50.778;7.094;2023-12-20T01:03:25;7.20;99.90
5846;DHT22;2949;50.778;7.094;2023-12-20T01:05:51;7.20;99.90
5846;DHT22;2949;50.778;7.094;2023-12-20T01:08:16;7.20;99.90
5846;DHT22;2949;50.778;7.094;2023-12-20T01:10:42;7.20;99.90
5846;DHT22;2949;50.778;7.094;2023-12-20T01:13:07;7.20;99.90
5846;DHT22;2949;50.778;7.094;2023-12-20T01:15:34;7.20;99.90
5846;DHT22;2949;50.778;7.094;2023-12-20T01:17:59;7.20;99.90
5846;DHT22;2949;50.778;7.094;2023-12-20T01:20:25;7.20;99.90
5846;DHT22;2949;50.778;7.094;2023-12-20T01:22:50;7.20;99.90
5846;DHT22;2949;50.778;7.094;2023-12-20T01:25:16;7.20;99.90
5846;DHT22;2949;50.778;7.094;2023-12-20T01:27:42;7.20;99.90
5846;DHT22;2949;50.778;7.094;2023-12-20T01:30:07;7.20;99.90
5846;DHT22;2949;50.778;7.094;2023-12-20T01:32:33;7.20;99.90
5846;DHT22;2949;50.778;7.094;2023-12-20T01:34:59;7.20;99.90
5846;DHT22;2949;50.778;7.094;2023-12-20T01:37:24;7.20;99.90
5846;DHT22;2949;50.778;7.094;2023-12-20T01:39:50;7.20;99.90
5846;DHT22;2949;50.778;7.094;2023-12-20T01:42:16;7.20;99.90
5846;DHT22;2949;50.778;7.094;2023-12-20T01:44:41;7.20;99.90
5846;DHT22;2949;50.778;7.094;2023-12-20T01:47:08;7.20;99.90
5846;DHT22;2949;50.778;7.094;2023-12-20T01:49:33;7.20;99.90
5846;DHT22;2949;50.778;7.094;2023-12-20T01:51:59;7.20;99.90
5846;DHT22;2949;50.778;7.094;2023-12-20T01:54:25;7.10;99.90
5846;DHT22;2949;50.778;7.094;2023-12-20T01:56:51;7.10;99.90
5846;DHT22;2949;50.778;7.094;2023-12-20T01:59:18;7.00;99.90
5846;DHT22;2949;50.778;7.094;2023-12-20T02:01:44;7.00;99.90
5846;DHT22;2949;50.778;7.094;2023-12-20T02:04:10;6.90;99.90
5846;DHT22;2949;50.778;7.094;2023-12-20T02:06:35;6.90;99.90
5846;DHT22;2949;50.778;7.094;2023-12-20T02:09:02;6.90;99.90
5846;DHT22;2949;50.778;7.094;2023-12-20T02:11:27;6.90;99.90
5846;DHT22;2949;50.778;7.094;2023-12-20T02:13:54;7.00;99.90
5846;DHT22;2949;50.778;7.094;2023-12-20T02:16:19;7.00;99.90
5846;DHT22;2949;50.778;7.094;2023-12-20T02:18:45;7.00;99.90
5846;DHT22;2949;50.778;7.094;2023-12-20T02:21:11;7.00;99.90
5846;DHT22;2949;50.778;7.094;2023-12-20T02:23:36;7.00;99.90
5846;DHT22;2949;50.778;7.094;2023-12-20T02:26:03;7.00;99.90
5846;DHT22;2949;50.778;7.094;2023-12-20T02:28:29;6.90;99.90
5846;DHT22;2949;50.778;7.094;2023-12-20T02:30:56;6.80;99.90
5846;DHT22;2949;50.778;7.094;2023-12-20T02:33:21;6.60;99.90
5846;DHT22;2949;50.778;7.094;2023-12-20T02:35:47;6.50;99.90
5846;DHT22;2949;50.778;7.094;2023-12-20T02:38:13;6.30;99.90
5846;DHT22;2949;50.778;7.094;2023-12-20T02:40:38;6.30;99.90
5846;DHT22;2949;50.778;7.094;2023-12-20T02:43:04;6.10;99.90
5846;DHT22;2949;50.778;7.094;2023-12-20T02:45:29;6.00;99.90
5846;DHT22;2949;50.778;7.094;2023-12-20T02:47:55;5.90;99.90
5846;DHT22;2949;50.778;7.094;2023-12-20T02:50:21;5.80;99.90
5846;DHT22;2949;50.778;7.094;2023-12-20T02:52:47;5.70;99.90
5846;DHT22;2949;50.778;7.094;2023-12-20T02:55:12;5.70;99.90
5846;DHT22;2949;50.778;7.094;2023-12-20T02:57:38;5.70;99.90
5846;DHT22;2949;50.778;7.094;2023-12-20T03:00:10;5.80;99.90
5846;DHT22;2949;50.778;7.094;2023-12-20T03:02:36;5.80;99.90
5846;DHT22;2949;50.778;7.094;2023-12-20T03:05:02;5.80;99.90
5846;DHT22;2949;50.778;7.094;2023-12-20T03:07:27;5.70;99.90
5846;DHT22;2949;50.778;7.094;2023-12-20T03:09:53;5.60;99.90
5846;DHT22;2949;50.778;7.094;2023-12-20T03:12:18;5.40;99.90
5846;DHT22;2949;50.778;7.094;2023-12-20T03:14:44;5.40;99.90
5846;DHT22;2949;50.778;7.094;2023-12-20T03:17:10;5.40;99.90
5846;DHT22;2949;50.778;7.094;2023-12-20T03:19:35;5.50;99.90
5846;DHT22;2949;50.778;7.094;2023-12-20T03:22:01;5.50;99.90
5846;DHT22;2949;50.778;7.094;2023-12-20T03:24:27;5.60;99.90
5846;DHT22;2949;50.778;7.094;2023-12-20T03:26:52;5.60;99.90
5846;DHT22;2949;50.778;7.094;2023-12-20T03:29:18;5.70;99.90
5846;DHT22;2949;50.778;7.094;2023-12-20T03:31:44;5.70;99.90
5846;DHT22;2949;50.778;7.094;2023-12-20T03:34:09;5.70;99.90
5846;DHT22;2949;50.778;7.094;2023-12-20T03:36:35;5.70;99.90
5846;DHT22;2949;50.778;7.094;2023-12-20T03:39:01;5.80;99.90
5846;DHT22;2949;50.778;7.094;2023-12-20T03:41:27;5.80;99.90
5846;DHT22;2949;50.778;7.094;2023-12-20T03:43:52;5.80;99.90
5846;DHT22;2949;50.778;7.094;2023-12-20T03:46:18;5.80;99.90
5846;DHT22;2949;50.778;7.094;2023-12-20T03:48:43;5.90;99.90
5846;DHT22;2949;50.778;7.094;2023-12-20T03:51:08;5.90;99.90
5846;DHT22;2949;50.778;7.094;2023-12-20T03:53:34;5.90;99.90
5846;DHT22;2949;50.778;7.094;2023-12-20T03:55:59;6.00;99.90
5846;DHT22;2949;50.778;7.094;2023-12-20T03:58:25;6.00;99.90
5846;DHT22;2949;50.778;7.094;2023-12-20T04:00:50;6.00;99.90
5846;DHT22;2949;50.778;7.094;2023-12-20T04:03:16;6.00;99.90
5846;DHT22;2949;50.778;7.094;2023-12-20T04:05:41;6.00;99.90
5846;DHT22;2949;50.778;7.094;2023-12-20T04:08:07;6.00;99.90
5846;DHT22;2949;50.778;7.094;2023-12-20T04:10:33;6.00;99.90
5846;DHT22;2949;50.778;7.094;2023-12-20T04:12:58;6.00;99.90
5846;DHT22;2949;50.778;7.094;2023-12-20T04:15:24;6.10;99.90
5846;DHT22;2949;50.778;7.094;2023-12-20T04:17:49;6.10;99.90
5846;DHT22;2949;50.778;7.094;2023-12-20T04:20:15;6.10;99.90
5846;DHT22;2949;50.778;7.094;2023-12-20T04:22:40;6.10;99.90
5846;DHT22;2949;50.778;7.094;2023-12-20T04:25:08;6.10;99.90
5846;DHT22;2949;50.778;7.094;2023-12-20T04:27:33;6.00;99.90
5846;DHT22;2949;50.778;7.094;2023-12-20T04:29:59;6.00;99.90
5846;DHT22;2949;50.778;7.094;2023-12-20T04:32:24;6.00;99.90
5846;DHT22;2949;50.778;7.094;2023-12-20T04:34:50;6.00;99.90
5846;DHT22;2949;50.778;7.094;2023-12-20T04:37:15;6.00;99.90
5846;DHT22;2949;50.778;7.094;2023-12-20T04:39:41;6.00;99.90
5846;DHT22;2949;50.778;7.094;2023-12-20T04:42:07;6.00;99.90
5846;DHT22;2949;50.778;7.094;2023-12-20T04:44:32;5.90;99.90
5846;DHT22;2949;50.778;7.094;2023-12-20T04:46:58;6.00;99.90
5846;DHT22;2949;50.778;7.094;2023-12-20T04:49:23;6.00;99.90
5846;DHT22;2949;50.778;7.094;2023-12-20T04:51:49;5.90;99.90
5846;DHT22;2949;50.778;7.094;2023-12-20T04:54:14;5.90;99.90
5846;DHT22;2949;50.778;7.094;2023-12-20T04:56:40;6.00;99.90
5846;DHT22;2949;50.778;7.094;2023-12-20T04:59:06;6.00;99.90
5846;DHT22;2949;50.778;7.094;2023-12-20T05:01:31;6.00;99.90
5846;DHT22;2949;50.778;7.094;2023-12-20T05:03:57;6.10;99.90
5846;DHT22;2949;50.778;7.094;2023-12-20T05:06:22;6.10;99.90
5846;DHT22;2949;50.778;7.094;2023-12-20T05:08:48;6.00;99.90
5846;DHT22;2949;50.778;7.094;2023-12-20T05:11:13;5.90;99.90
5846;DHT22;2949;50.778;7.094;2023-12-20T05:13:40;5.80;99.90
5846;DHT22;2949;50.778;7.094;2023-12-20T05:16:06;5.70;99.90
5846;DHT22;2949;50.778;7.094;2023-12-20T05:18:31;5.50;99.90
5846;DHT22;2949;50.778;7.094;2023-12-20T05:20:57;5.50;99.90
5846;DHT22;2949;50.778;7.094;2023-12-20T05:23:23;5.40;99.90
5846;DHT22;2949;50.778;7.094;2023-12-20T05:25:48;5.40;99.90
5846;DHT22;2949;50.778;7.094;2023-12-20T05:28:14;5.30;99.90
5846;DHT22;2949;50.778;7.094;2023-12-20T05:30:40;5.20;99.90
5846;DHT22;2949;50.778;7.094;2023-12-20T05:33:05;5.10;99.90
5846;DHT22;2949;50.778;7.094;2023-12-20T05:35:31;5.10;99.90
5846;DHT22;2949;50.778;7.094;2023-12-20T05:37:56;5.10;99.90
5846;DHT22;2949;50.778;7.094;2023-12-20T05:40:22;5.00;99.90
5846;DHT22;2949;50.778;7.094;2023-12-20T05:42:47;5.00;99.90
5846;DHT22;2949;50.778;7.094;2023-12-20T05:45:14;5.10;99.90
5846;DHT22;2949;50.778;7.094;2023-12-20T05:47:40;5.10;99.90
5846;DHT22;2949;50.778;7.094;2023-12-20T05:50:06;5.10;99.90
5846;DHT22;2949;50.778;7.094;2023-12-20T05:52:32;5.10;99.90
5846;DHT22;2949;50.778;7.094;2023-12-20T05:54:57;5.10;99.90
5846;DHT22;2949;50.778;7.094;2023-12-20T05:57:26;5.20;99.90
5846;DHT22;2949;50.778;7.094;2023-12-20T05:59:52;5.20;99.90
5846;DHT22;2949;50.778;7.094;2023-12-20T06:02:18;5.20;99.90
5846;DHT22;2949;50.778;7.094;2023-12-20T06:04:43;5.30;99.90
5846;DHT22;2949;50.778;7.094;2023-12-20T06:07:12;5.30;99.90
5846;DHT22;2949;50.778;7.094;2023-12-20T06:09:38;5.30;99.90
5846;DHT22;2949;50.778;7.094;2023-12-20T06:12:03;5.40;99.90
5846;DHT22;2949;50.778;7.094;2023-12-20T06:14:29;5.50;99.90
5846;DHT22;2949;50.778;7.094;2023-12-20T06:16:56;5.50;99.90
5846;DHT22;2949;50.778;7.094;2023-12-20T06:19:22;5.60;99.90
5846;DHT22;2949;50.778;7.094;2023-12-20T06:21:47;5.60;99.90
5846;DHT22;2949;50.778;7.094;2023-12-20T06:24:13;5.60;99.90
5846;DHT22;2949;50.778;7.094;2023-12-20T06:26:38;5.60;99.90
5846;DHT22;2949;50.778;7.094;2023-12-20T06:29:04;5.70;99.90
5846;DHT22;2949;50.778;7.094;2023-12-20T06:31:29;5.60;99.90
5846;DHT22;2949;50.778;7.094;2023-12-20T06:33:55;5.60;99.90
5846;DHT22;2949;50.778;7.094;2023-12-20T06:36:23;5.60;99.90
5846;DHT22;2949;50.778;7.094;2023-12-20T06:38:50;5.70;99.90
5846;DHT22;2949;50.778;7.094;2023-12-20T06:41:15;5.60;99.90
5846;DHT22;2949;50.778;7.094;2023-12-20T06:43:42;5.70;99.90
5846;DHT22;2949;50.778;7.094;2023-12-20T06:46:07;5.70;99.90
5846;DHT22;2949;50.778;7.094;2023-12-20T06:48:34;5.80;99.90
5846;DHT22;2949;50.778;7.094;2023-12-20T06:51:00;5.80;99.90
5846;DHT22;2949;50.778;7.094;2023-12-20T06:53:27;5.80;99.90
5846;DHT22;2949;50.778;7.094;2023-12-20T06:55:53;5.90;99.90
5846;DHT22;2949;50.778;7.094;2023-12-20T06:58:18;5.90;99.90
5846;DHT22;2949;50.778;7.094;2023-12-20T07:00:44;5.90;99.90
5846;DHT22;2949;50.778;7.094;2023-12-20T07:03:09;5.90;99.90
5846;DHT22;2949;50.778;7.094;2023-12-20T07:05:35;5.90;99.90
5846;DHT22;2949;50.778;7.094;2023-12-20T07:08:00;5.90;99.90
5846;DHT22;2949;50.778;7.094;2023-12-20T07:10:26;6.00;99.90
5846;DHT22;2949;50.778;7.094;2023-12-20T07:12:51;6.00;99.90
5846;DHT22;2949;50.778;7.094;2023-12-20T07:15:17;6.00;99.90
5846;DHT22;2949;50.778;7.094;2023-12-20T07:17:43;6.00;99.90
5846;DHT22;2949;50.778;7.094;2023-12-20T07:20:09;6.00;99.90
5846;DHT22;2949;50.778;7.094;2023-12-20T07:22:36;6.10;99.90
5846;DHT22;2949;50.778;7.094;2023-12-20T07:25:02;6.10;99.90
5846;DHT22;2949;50.778;7.094;2023-12-20T07:27:28;6.10;99.90
5846;DHT22;2949;50.778;7.094;2023-12-20T07:29:54;6.20;99.90
5846;DHT22;2949;50.778;7.094;2023-12-20T07:32:19;6.10;99.90
5846;DHT22;2949;50.778;7.094;2023-12-20T07:34:45;6.20;99.90
5846;DHT22;2949;50.778;7.094;2023-12-20T07:37:10;6.20;99.90
5846;DHT22;2949;50.778;7.094;2023-12-20T07:39:38;6.20;99.90
5846;DHT22;2949;50.778;7.094;2023-12-20T07:42:05;6.20;99.90
5846;DHT22;2949;50.778;7.094;2023-12-20T07:44:31;6.30;99.90
5846;DHT22;2949;50.778;7.094;2023-12-20T07:46:56;6.20;99.90
5846;DHT22;2949;50.778;7.094;2023-12-20T07:49:23;6.20;99.90
5846;DHT22;2949;50.778;7.094;2023-12-20T07:51:49;6.30;99.90
5846;DHT22;2949;50.778;7.094;2023-12-20T07:54:15;6.30;99.90
5846;DHT22;2949;50.778;7.094;2023-12-20T07:56:41;6.30;99.90
5846;DHT22;2949;50.778;7.094;2023-12-20T07:59:07;6.30;99.90
5846;DHT22;2949;50.778;7.094;2023-12-20T08:01:32;6.30;99.90
5846;DHT22;2949;50.778;7.094;2023-12-20T08:03:58;6.30;99.90
5846;DHT22;2949;50.778;7.094;2023-12-20T08:06:23;6.30;99.90
5846;DHT22;2949;50.778;7.094;2023-12-20T08:08:49;6.30;99.90
5846;DHT22;2949;50.778;7.094;2023-12-20T08:11:14;6.40;99.90
5846;DHT22;2949;50.778;7.094;2023-12-20T08:13:40;6.40;99.90
5846;DHT22;2949;50.778;7.094;2023-12-20T08:16:06;6.40;99.90
5846;DHT22;2949;50.778;7.094;2023-12-20T08:18:31;6.40;99.90
5846;DHT22;2949;50.778;7.094;2023-12-20T08:20:57;6.50;99.90
5846;DHT22;2949;50.778;7.094;2023-12-20T08:23:22;6.50;99.90
5846;DHT22;2949;50.778;7.094;2023-12-20T08:25:48;6.50;99.90
5846;DHT22;2949;50.778;7.094;2023-12-20T08:28:14;6.60;99.90
5846;DHT22;2949;50.778;7.094;2023-12-20T08:30:40;6.60;99.90
5846;DHT22;2949;50.778;7.094;2023-12-20T08:33:06;6.60;99.90
5846;DHT22;2949;50.778;7.094;2023-12-20T08:35:36;6.60;99.90
5846;DHT22;2949;50.778;7.094;2023-12-20T08:38:02;6.70;99.90
5846;DHT22;2949;50.778;7.094;2023-12-20T08:40:29;6.70;99.90
5846;DHT22;2949;50.778;7.094;2023-12-20T08:42:55;6.80;99.90
5846;DHT22;2949;50.778;7.094;2023-12-20T08:45:20;6.80;99.90
5846;DHT22;2949;50.778;7.094;2023-12-20T08:47:46;6.80;99.90
5846;DHT22;2949;50.778;7.094;2023-12-20T08:50:11;6.80;99.90
5846;DHT22;2949;50.778;7.094;2023-12-20T08:52:37;6.70;99.90
5846;DHT22;2949;50.778;7.094;2023-12-20T08:55:03;6.80;99.90
5846;DHT22;2949;50.778;7.094;2023-12-20T08:57:29;7.10;99.90
5846;DHT22;2949;50.778;7.094;2023-12-20T08:59:55;7.40;99.90
5846;DHT22;2949;50.778;7.094;2023-12-20T09:02:20;7.50;99.90
5846;DHT22;2949;50.778;7.094;2023-12-20T09:04:46;7.50;99.90
5846;DHT22;2949;50.778;7.094;2023-12-20T09:07:25;7.40;99.90
5846;DHT22;2949;50.778;7.094;2023-12-20T09:09:51;7.40;99.90
5846;DHT22;2949;50.778;7.094;2023-12-20T09:12:20;7.30;99.90
5846;DHT22;2949;50.778;7.094;2023-12-20T09:14:50;7.20;99.90
5846;DHT22;2949;50.778;7.094;2023-12-20T09:17:17;7.20;99.90
5846;DHT22;2949;50.778;7.094;2023-12-20T09:19:43;7.10;99.90
5846;DHT22;2949;50.778;7.094;2023-12-20T09:22:11;7.10;99.90
5846;DHT22;2949;50.778;7.094;2023-12-20T09:24:37;7.20;99.90
5846;DHT22;2949;50.778;7.094;2023-12-20T09:27:04;7.10;99.90
5846;DHT22;2949;50.778;7.094;2023-12-20T09:29:31;7.20;99.90
5846;DHT22;2949;50.778;7.094;2023-12-20T09:31:56;7.10;99.90
5846;DHT22;2949;50.778;7.094;2023-12-20T09:34:23;7.10;99.90
5846;DHT22;2949;50.778;7.094;2023-12-20T09:36:49;7.20;99.90
5846;DHT22;2949;50.778;7.094;2023-12-20T09:39:16;7.10;99.90
5846;DHT22;2949;50.778;7.094;2023-12-20T09:42:00;7.10;99.90
5846;DHT22;2949;50.778;7.094;2023-12-20T09:44:26;7.10;99.90
5846;DHT22;2949;50.778;7.094;2023-12-20T09:46:53;7.10;99.90
5846;DHT22;2949;50.778;7.094;2023-12-20T09:49:19;7.10;99.90
5846;DHT22;2949;50.778;7.094;2023-12-20T09:51:53;7.10;99.90
5846;DHT22;2949;50.778;7.094;2023-12-20T09:54:19;7.10;99.90
5846;DHT22;2949;50.778;7.094;2023-12-20T09:56:45;7.10;99.90
5846;DHT22;2949;50.778;7.094;2023-12-20T09:59:11;7.00;99.90
5846;DHT22;2949;50.778;7.094;2023-12-20T10:01:39;7.00;99.90
5846;DHT22;2949;50.778;7.094;2023-12-20T10:04:09;7.00;99.90
5846;DHT22;2949;50.778;7.094;2023-12-20T10:06:44;7.10;99.90
5846;DHT22;2949;50.778;7.094;2023-12-20T10:09:11;7.10;99.90
5846;DHT22;2949;50.778;7.094;2023-12-20T10:11:37;7.10;99.90
5846;DHT22;2949;50.778;7.094;2023-12-20T10:14:03;7.10;99.90
5846;DHT22;2949;50.778;7.094;2023-12-20T10:16:29;7.10;99.90
5846;DHT22;2949;50.778;7.094;2023-12-20T10:18:55;7.20;99.90
5846;DHT22;2949;50.778;7.094;2023-12-20T10:21:22;7.20;99.90
5846;DHT22;2949;50.778;7.094;2023-12-20T10:23:48;7.20;99.90
5846;DHT22;2949;50.778;7.094;2023-12-20T10:26:25;7.10;99.90
5846;DHT22;2949;50.778;7.094;2023-12-20T10:28:53;7.20;99.90
5846;DHT22;2949;50.778;7.094;2023-12-20T10:31:35;7.20;99.90
5846;DHT22;2949;50.778;7.094;2023-12-20T10:34:02;7.20;99.90
5846;DHT22;2949;50.778;7.094;2023-12-20T10:36:32;7.20;99.90
5846;DHT22;2949;50.778;7.094;2023-12-20T10:38:59;7.20;99.90
5846;DHT22;2949;50.778;7.094;2023-12-20T10:41:27;7.20;99.90
5846;DHT22;2949;50.778;7.094;2023-12-20T10:44:00;7.20;99.90
5846;DHT22;2949;50.778;7.094;2023-12-20T10:46:27;7.30;99.90
5846;DHT22;2949;50.778;7.094;2023-12-20T10:48:54;7.30;99.90
5846;DHT22;2949;50.778;7.094;2023-12-20T10:51:21;7.40;99.90
5846;DHT22;2949;50.778;7.094;2023-12-20T10:53:48;7.50;99.90
5846;DHT22;2949;50.778;7.094;2023-12-20T10:56:17;7.60;99.90
5846;DHT22;2949;50.778;7.094;2023-12-20T10:58:44;7.60;99.90
5846;DHT22;2949;50.778;7.094;2023-12-20T11:01:12;7.60;99.90
5846;DHT22;2949;50.778;7.094;2023-12-20T11:03:38;7.60;99.90
5846;DHT22;2949;50.778;7.094;2023-12-20T11:06:27;7.60;99.90
5846;DHT22;2949;50.778;7.094;2023-12-20T11:09:01;7.60;99.90
5846;DHT22;2949;50.778;7.094;2023-12-20T11:14:14;7.60;99.90
5846;DHT22;2949;50.778;7.094;2023-12-20T11:16:41;7.60;99.90
5846;DHT22;2949;50.778;7.094;2023-12-20T11:19:06;7.60;99.90
5846;DHT22;2949;50.778;7.094;2023-12-20T11:21:32;7.60;99.90
5846;DHT22;2949;50.778;7.094;2023-12-20T11:23:59;7.60;99.90
5846;DHT22;2949;50.778;7.094;2023-12-20T11:26:29;7.60;99.90
5846;DHT22;2949;50.778;7.094;2023-12-20T11:31:42;7.60;99.90
5846;DHT22;2949;50.778;7.094;2023-12-20T11:34:14;7.60;99.90
5846;DHT22;2949;50.778;7.094;2023-12-20T11:36:42;7.60;99.90
5846;DHT22;2949;50.778;7.094;2023-12-20T11:39:08;7.60;99.90
5846;DHT22;2949;50.778;7.094;2023-12-20T11:41:36;7.50;99.90
5846;DHT22;2949;50.778;7.094;2023-12-20T11:44:04;7.50;99.90
5846;DHT22;2949;50.778;7.094;2023-12-20T11:46:31;7.50;99.90
5846;DHT22;2949;50.778;7.094;2023-12-20T11:48:57;7.50;99.90
5846;DHT22;2949;50.778;7.094;2023-12-20T11:51:22;7.50;99.90
5846;DHT22;2949;50.778;7.094;2023-12-20T11:53:51;7.60;99.90
5846;DHT22;2949;50.778;7.094;2023-12-20T11:56:18;7.80;99.90
5846;DHT22;2949;50.778;7.094;2023-12-20T11:58:44;8.00;99.90
5846;DHT22;2949;50.778;7.094;2023-12-20T12:01:09;8.30;99.90
5846;DHT22;2949;50.778;7.094;2023-12-20T12:03:36;8.40;99.90
5846;DHT22;2949;50.778;7.094;2023-12-20T12:06:02;8.50;99.90
5846;DHT22;2949;50.778;7.094;2023-12-20T12:08:29;8.60;99.90
5846;DHT22;2949;50.778;7.094;2023-12-20T12:10:55;8.60;99.90
5846;DHT22;2949;50.778;7.094;2023-12-20T12:13:21;8.50;99.90
5846;DHT22;2949;50.778;7.094;2023-12-20T12:15:48;8.60;99.90
5846;DHT22;2949;50.778;7.094;2023-12-20T12:18:16;8.60;99.90
5846;DHT22;2949;50.778;7.094;2023-12-20T12:20:42;8.50;99.90
5846;DHT22;2949;50.778;7.094;2023-12-20T12:23:07;8.40;99.90
5846;DHT22;2949;50.778;7.094;2023-12-20T12:25:35;8.30;99.90
5846;DHT22;2949;50.778;7.094;2023-12-20T12:28:02;8.30;99.90
5846;DHT22;2949;50.778;7.094;2023-12-20T12:30:28;8.30;99.90
5846;DHT22;2949;50.778;7.094;2023-12-20T12:32:56;8.30;99.90
5846;DHT22;2949;50.778;7.094;2023-12-20T12:35:22;8.20;99.90
5846;DHT22;2949;50.778;7.094;2023-12-20T12:37:49;8.20;99.90
5846;DHT22;2949;50.778;7.094;2023-12-20T12:40:16;8.10;99.90
5846;DHT22;2949;50.778;7.094;2023-12-20T12:42:43;8.00;99.90
5846;DHT22;2949;50.778;7.094;2023-12-20T12:45:09;8.00;99.90
5846;DHT22;2949;50.778;7.094;2023-12-20T12:47:35;8.00;99.90
5846;DHT22;2949;50.778;7.094;2023-12-20T12:50:01;8.00;99.90
5846;DHT22;2949;50.778;7.094;2023-12-20T12:52:27;8.00;99.90
5846;DHT22;2949;50.778;7.094;2023-12-20T12:54:52;8.00;99.90
5846;DHT22;2949;50.778;7.094;2023-12-20T12:57:18;8.00;99.90
5846;DHT22;2949;50.778;7.094;2023-12-20T12:59:45;8.00;99.90
5846;DHT22;2949;50.778;7.094;2023-12-20T13:02:12;7.90;99.90
5846;DHT22;2949;50.778;7.094;2023-12-20T13:04:39;7.90;99.90
5846;DHT22;2949;50.778;7.094;2023-12-20T13:07:04;7.90;99.90
5846;DHT22;2949;50.778;7.094;2023-12-20T13:09:30;7.90;99.90
5846;DHT22;2949;50.778;7.094;2023-12-20T13:11:56;7.90;99.90
5846;DHT22;2949;50.778;7.094;2023-12-20T13:14:21;7.80;99.90
5846;DHT22;2949;50.778;7.094;2023-12-20T13:16:47;7.90;99.90
5846;DHT22;2949;50.778;7.094;2023-12-20T13:19:12;7.90;99.90
5846;DHT22;2949;50.778;7.094;2023-12-20T13:21:38;7.90;99.90
5846;DHT22;2949;50.778;7.094;2023-12-20T13:24:05;7.90;99.90
5846;DHT22;2949;50.778;7.094;2023-12-20T13:26:30;7.90;99.90
5846;DHT22;2949;50.778;7.094;2023-12-20T13:28:56;7.90;99.90
5846;DHT22;2949;50.778;7.094;2023-12-20T13:31:21;7.80;99.90
5846;DHT22;2949;50.778;7.094;2023-12-20T13:33:47;7.70;99.90
5846;DHT22;2949;50.778;7.094;2023-12-20T13:36:13;7.60;99.90
5846;DHT22;2949;50.778;7.094;2023-12-20T13:38:39;7.60;99.90
5846;DHT22;2949;50.778;7.094;2023-12-20T13:41:04;7.50;99.90
5846;DHT22;2949;50.778;7.094;2023-12-20T13:43:31;7.50;99.90
5846;DHT22;2949;50.778;7.094;2023-12-20T13:45:58;7.50;99.90
5846;DHT22;2949;50.778;7.094;2023-12-20T13:48:24;7.40;99.90
5846;DHT22;2949;50.778;7.094;2023-12-20T13:50:49;7.40;99.90
5846;DHT22;2949;50.778;7.094;2023-12-20T13:53:15;7.40;99.90
5846;DHT22;2949;50.778;7.094;2023-12-20T13:55:41;7.40;99.90
5846;DHT22;2949;50.778;7.094;2023-12-20T13:58:06;7.40;99.90
5846;DHT22;2949;50.778;7.094;2023-12-20T14:00:32;7.50;99.90
5846;DHT22;2949;50.778;7.094;2023-12-20T14:02:57;7.50;99.90
5846;DHT22;2949;50.778;7.094;2023-12-20T14:05:24;7.50;99.90
5846;DHT22;2949;50.778;7.094;2023-12-20T14:07:49;7.50;99.90
5846;DHT22;2949;50.778;7.094;2023-12-20T14:10:15;7.60;99.90
5846;DHT22;2949;50.778;7.094;2023-12-20T14:12:41;7.60;99.90
5846;DHT22;2949;50.778;7.094;2023-12-20T14:15:07;7.50;99.90
5846;DHT22;2949;50.778;7.094;2023-12-20T14:17:38;7.50;99.90
5846;DHT22;2949;50.778;7.094;2023-12-20T14:20:06;7.40;99.90
5846;DHT22;2949;50.778;7.094;2023-12-20T14:22:32;7.40;99.90
5846;DHT22;2949;50.778;7.094;2023-12-20T14:24:58;7.40;99.90
5846;DHT22;2949;50.778;7.094;2023-12-20T14:27:23;7.40;99.90
5846;DHT22;2949;50.778;7.094;2023-12-20T14:29:51;7.30;99.90
5846;DHT22;2949;50.778;7.094;2023-12-20T14:32:16;7.30;99.90
5846;DHT22;2949;50.778;7.094;2023-12-20T14:34:42;7.30;99.90
5846;DHT22;2949;50.778;7.094;2023-12-20T14:37:07;7.30;99.90
5846;DHT22;2949;50.778;7.094;2023-12-20T14:39:33;7.30;99.90
5846;DHT22;2949;50.778;7.094;2023-12-20T14:41:58;7.30;99.90
5846;DHT22;2949;50.778;7.094;2023-12-20T14:44:24;7.40;99.90
5846;DHT22;2949;50.778;7.094;2023-12-20T14:46:50;7.40;99.90
5846;DHT22;2949;50.778;7.094;2023-12-20T14:49:16;7.40;99.90
5846;DHT22;2949;50.778;7.094;2023-12-20T14:51:44;7.40;99.90
5846;DHT22;2949;50.778;7.094;2023-12-20T14:54:10;7.40;99.90
5846;DHT22;2949;50.778;7.094;2023-12-20T14:56:35;7.40;99.90
5846;DHT22;2949;50.778;7.094;2023-12-20T14:59:01;7.40;99.90
5846;DHT22;2949;50.778;7.094;2023-12-20T15:01:27;7.40;99.90
5846;DHT22;2949;50.778;7.094;2023-12-20T15:03:52;7.40;99.90
5846;DHT22;2949;50.778;7.094;2023-12-20T15:06:18;7.50;99.90
5846;DHT22;2949;50.778;7.094;2023-12-20T15:08:45;7.50;99.90
5846;DHT22;2949;50.778;7.094;2023-12-20T15:11:11;7.50;99.90
5846;DHT22;2949;50.778;7.094;2023-12-20T15:13:36;7.40;99.90
5846;DHT22;2949;50.778;7.094;2023-12-20T15:16:03;7.40;99.90
5846;DHT22;2949;50.778;7.094;2023-12-20T15:18:30;7.40;99.90
5846;DHT22;2949;50.778;7.094;2023-12-20T15:20:57;7.30;99.90
5846;DHT22;2949;50.778;7.094;2023-12-20T15:23:23;7.40;99.90
5846;DHT22;2949;50.778;7.094;2023-12-20T15:25:51;7.40;99.90
5846;DHT22;2949;50.778;7.094;2023-12-20T15:28:17;7.30;99.90
5846;DHT22;2949;50.778;7.094;2023-12-20T15:30:43;7.30;99.90
5846;DHT22;2949;50.778;7.094;2023-12-20T15:33:08;7.20;99.90
5846;DHT22;2949;50.778;7.094;2023-12-20T15:35:34;7.30;99.90
5846;DHT22;2949;50.778;7.094;2023-12-20T15:37:59;7.30;99.90
5846;DHT22;2949;50.778;7.094;2023-12-20T15:40:25;7.30;99.90
5846;DHT22;2949;50.778;7.094;2023-12-20T15:42:50;7.30;99.90
5846;DHT22;2949;50.778;7.094;2023-12-20T15:45:16;7.30;99.90
5846;DHT22;2949;50.778;7.094;2023-12-20T15:47:41;7.30;99.90
5846;DHT22;2949;50.778;7.094;2023-12-20T15:50:07;7.40;99.90
5846;DHT22;2949;50.778;7.094;2023-12-20T15:52:33;7.30;99.90
5846;DHT22;2949;50.778;7.094;2023-12-20T15:54:59;7.40;99.90
5846;DHT22;2949;50.778;7.094;2023-12-20T15:57:24;7.40;99.90
5846;DHT22;2949;50.778;7.094;2023-12-20T15:59:50;7.40;99.90
5846;DHT22;2949;50.778;7.094;2023-12-20T16:02:18;7.40;99.90
5846;DHT22;2949;50.778;7.094;2023-12-20T16:04:43;7.40;99.90
5846;DHT22;2949;50.778;7.094;2023-12-20T16:07:09;7.40;99.90
5846;DHT22;2949;50.778;7.094;2023-12-20T16:09:34;7.40;99.90
5846;DHT22;2949;50.778;7.094;2023-12-20T16:12:00;7.40;99.90
5846;DHT22;2949;50.778;7.094;2023-12-20T16:14:25;7.40;99.90